sensor_id;sensor_type;location;lat;lon;timestamp;P1;durP1;ratioP1;P2;durP2;ratioP2
20861;SDS011;10591;52.532;13.348;2024-02-23T00:00:27;1.10;;;1.10;;
20861;SDS011;10591;52.532;13.348;2024-02-23T00:02:58;1.72;;;1.30;;
20861;SDS011;10591;52.532;13.348;2024-02-23T00:05:28;1.50;;;1.40;;
20861;SDS011;10591;52.532;13.348;2024-02-23T00:07:59;3.50;;;1.22;;
20861;SDS011;10591;52.532;13.348;2024-02-23T00:10:30;1.50;;;1.40;;
20861;SDS011;10591;52.532;13.348;2024-02-23T00:13:01;1.05;;;1.00;;
20861;SDS011;10591;52.532;13.348;2024-02-23T00:15:31;1.32;;;1.22;;
20861;SDS011;10591;52.532;13.348;2024-02-23T00:18:02;1.65;;;1.50;;
20861;SDS011;10591;52.532;13.348;2024-02-23T00:20:33;1.40;;;1.30;;
20861;SDS011;10591;52.532;13.348;2024-02-23T00:23:05;0.90;;;0.90;;
20861;SDS011;10591;52.532;13.348;2024-02-23T00:25:35;1.52;;;1.42;;
20861;SDS011;10591;52.532;13.348;2024-02-23T00:28:06;1.60;;;1.50;;
20861;SDS011;10591;52.532;13.348;2024-02-23T00:30:36;1.67;;;1.40;;
20861;SDS011;10591;52.532;13.348;2024-02-23T00:33:07;1.60;;;1.50;;
20861;SDS011;10591;52.532;13.348;2024-02-23T00:35:39;1.02;;;1.02;;
20861;SDS011;10591;52.532;13.348;2024-02-23T00:38:09;1.40;;;1.30;;
20861;SDS011;10591;52.532;13.348;2024-02-23T00:40:40;1.30;;;1.20;;
20861;SDS011;10591;52.532;13.348;2024-02-23T00:43:11;1.95;;;1.80;;
20861;SDS011;10591;52.532;13.348;2024-02-23T00:45:42;1.40;;;1.30;;
20861;SDS011;10591;52.532;13.348;2024-02-23T00:48:12;1.50;;;1.40;;
20861;SDS011;10591;52.532;13.348;2024-02-23T00:50:43;1.60;;;1.50;;
20861;SDS011;10591;52.532;13.348;2024-02-23T00:53:14;1.70;;;1.60;;
20861;SDS011;10591;52.532;13.348;2024-02-23T00:55:46;2.52;;;1.50;;
20861;SDS011;10591;52.532;13.348;2024-02-23T00:58:17;1.50;;;1.40;;
20861;SDS011;10591;52.532;13.348;2024-02-23T01:00:48;1.65;;;1.40;;
20861;SDS011;10591;52.532;13.348;2024-02-23T01:03:19;1.37;;;1.27;;
20861;SDS011;10591;52.532;13.348;2024-02-23T01:05:50;2.58;;;1.60;;
20861;SDS011;10591;52.532;13.348;2024-02-23T01:08:21;1.60;;;1.50;;
20861;SDS011;10591;52.532;13.348;2024-02-23T01:10:52;2.37;;;1.45;;
20861;SDS011;10591;52.532;13.348;2024-02-23T01:13:23;1.57;;;1.47;;
20861;SDS011;10591;52.532;13.348;2024-02-23T01:15:54;1.50;;;1.40;;
20861;SDS011;10591;52.532;13.348;2024-02-23T01:18:24;1.67;;;1.55;;
20861;SDS011;10591;52.532;13.348;2024-02-23T01:20:58;1.98;;;1.50;;
20861;SDS011;10591;52.532;13.348;2024-02-23T01:23:29;1.40;;;1.30;;
20861;SDS011;10591;52.532;13.348;2024-02-23T01:26:00;1.60;;;1.50;;
20861;SDS011;10591;52.532;13.348;2024-02-23T01:28:31;2.33;;;1.57;;
20861;SDS011;10591;52.532;13.348;2024-02-23T01:31:02;1.30;;;1.20;;
20861;SDS011;10591;52.532;13.348;2024-02-23T01:33:35;1.55;;;1.45;;
20861;SDS011;10591;52.532;13.348;2024-02-23T01:36:06;3.00;;;1.57;;
20861;SDS011;10591;52.532;13.348;2024-02-23T01:38:38;1.47;;;1.37;;
20861;SDS011;10591;52.532;13.348;2024-02-23T01:41:11;1.52;;;1.42;;
20861;SDS011;10591;52.532;13.348;2024-02-23T01:43:42;1.65;;;1.40;;
20861;SDS011;10591;52.532;13.348;2024-02-23T01:46:13;1.52;;;1.42;;
20861;SDS011;10591;52.532;13.348;2024-02-23T01:48:45;1.50;;;1.40;;
20861;SDS011;10591;52.532;13.348;2024-02-23T01:51:16;1.52;;;1.32;;
20861;SDS011;10591;52.532;13.348;2024-02-23T01:53:47;1.82;;;1.55;;
20861;SDS011;10591;52.532;13.348;2024-02-23T01:56:18;1.42;;;1.32;;
20861;SDS011;10591;52.532;13.348;2024-02-23T01:58:53;1.42;;;1.32;;
20861;SDS011;10591;52.532;13.348;2024-02-23T02:01:25;1.32;;;1.22;;
20861;SDS011;10591;52.532;13.348;2024-02-23T02:03:56;1.30;;;1.20;;
20861;SDS011;10591;52.532;13.348;2024-02-23T02:06:28;3.00;;;1.42;;
20861;SDS011;10591;52.532;13.348;2024-02-23T02:08:58;1.20;;;1.10;;
20861;SDS011;10591;52.532;13.348;2024-02-23T02:11:29;1.10;;;1.00;;
20861;SDS011;10591;52.532;13.348;2024-02-23T02:14:00;1.02;;;1.00;;
20861;SDS011;10591;52.532;13.348;2024-02-23T02:16:31;3.25;;;1.10;;
20861;SDS011;10591;52.532;13.348;2024-02-23T02:19:02;2.98;;;0.90;;
20861;SDS011;10591;52.532;13.348;2024-02-23T02:21:33;1.15;;;0.70;;
20861;SDS011;10591;52.532;13.348;2024-02-23T02:24:04;1.75;;;1.00;;
20861;SDS011;10591;52.532;13.348;2024-02-23T02:26:35;1.00;;;1.00;;
20861;SDS011;10591;52.532;13.348;2024-02-23T02:29:07;0.85;;;0.80;;
20861;SDS011;10591;52.532;13.348;2024-02-23T02:31:38;0.90;;;0.90;;
20861;SDS011;10591;52.532;13.348;2024-02-23T02:34:08;1.20;;;1.00;;
20861;SDS011;10591;52.532;13.348;2024-02-23T02:36:40;2.72;;;1.10;;
20861;SDS011;10591;52.532;13.348;2024-02-23T02:39:11;1.15;;;1.00;;
20861;SDS011;10591;52.532;13.348;2024-02-23T02:41:42;1.10;;;0.70;;
20861;SDS011;10591;52.532;13.348;2024-02-23T02:44:13;1.45;;;0.60;;
20861;SDS011;10591;52.532;13.348;2024-02-23T02:46:44;0.78;;;0.53;;
20861;SDS011;10591;52.532;13.348;2024-02-23T02:49:15;0.55;;;0.55;;
20861;SDS011;10591;52.532;13.348;2024-02-23T02:51:45;1.05;;;0.80;;
20861;SDS011;10591;52.532;13.348;2024-02-23T02:54:16;1.10;;;0.70;;
20861;SDS011;10591;52.532;13.348;2024-02-23T02:56:47;1.17;;;0.80;;
20861;SDS011;10591;52.532;13.348;2024-02-23T02:59:19;1.10;;;0.70;;
20861;SDS011;10591;52.532;13.348;2024-02-23T03:01:52;1.05;;;0.55;;
20861;SDS011;10591;52.532;13.348;2024-02-23T03:04:24;0.82;;;0.82;;
20861;SDS011;10591;52.532;13.348;2024-02-23T03:06:56;1.37;;;0.72;;
20861;SDS011;10591;52.532;13.348;2024-02-23T03:09:27;1.00;;;0.70;;
20861;SDS011;10591;52.532;13.348;2024-02-23T03:11:57;0.60;;;0.60;;
20861;SDS011;10591;52.532;13.348;2024-02-23T03:14:28;0.68;;;0.68;;
20861;SDS011;10591;52.532;13.348;2024-02-23T03:17:00;0.70;;;0.60;;
20861;SDS011;10591;52.532;13.348;2024-02-23T03:19:32;2.35;;;0.70;;
20861;SDS011;10591;52.532;13.348;2024-02-23T03:22:03;1.42;;;0.75;;
20861;SDS011;10591;52.532;13.348;2024-02-23T03:24:34;1.72;;;0.70;;
20861;SDS011;10591;52.532;13.348;2024-02-23T03:27:05;0.70;;;0.70;;
20861;SDS011;10591;52.532;13.348;2024-02-23T03:29:37;0.80;;;0.80;;
20861;SDS011;10591;52.532;13.348;2024-02-23T03:32:09;0.70;;;0.70;;
20861;SDS011;10591;52.532;13.348;2024-02-23T03:34:40;1.12;;;0.80;;
20861;SDS011;10591;52.532;13.348;2024-02-23T03:37:12;1.47;;;0.90;;
20861;SDS011;10591;52.532;13.348;2024-02-23T03:39:43;1.95;;;0.68;;
20861;SDS011;10591;52.532;13.348;2024-02-23T03:42:13;1.52;;;0.80;;
20861;SDS011;10591;52.532;13.348;2024-02-23T03:44:44;1.92;;;0.90;;
20861;SDS011;10591;52.532;13.348;2024-02-23T03:47:16;0.60;;;0.60;;
20861;SDS011;10591;52.532;13.348;2024-02-23T03:49:47;0.75;;;0.62;;
20861;SDS011;10591;52.532;13.348;2024-02-23T03:52:17;1.80;;;0.95;;
20861;SDS011;10591;52.532;13.348;2024-02-23T03:54:48;0.80;;;0.80;;
20861;SDS011;10591;52.532;13.348;2024-02-23T03:57:20;1.42;;;0.62;;
20861;SDS011;10591;52.532;13.348;2024-02-23T03:59:57;1.00;;;0.90;;
20861;SDS011;10591;52.532;13.348;2024-02-23T04:02:23;0.82;;;0.62;;
20861;SDS011;10591;52.532;13.348;2024-02-23T04:04:54;1.82;;;0.70;;
20861;SDS011;10591;52.532;13.348;2024-02-23T04:07:25;2.08;;;0.60;;
20861;SDS011;10591;52.532;13.348;2024-02-23T04:09:56;3.55;;;0.98;;
20861;SDS011;10591;52.532;13.348;2024-02-23T04:12:27;0.72;;;0.70;;
20861;SDS011;10591;52.532;13.348;2024-02-23T04:15:00;2.35;;;0.78;;
20861;SDS011;10591;52.532;13.348;2024-02-23T04:17:30;2.45;;;1.10;;
20861;SDS011;10591;52.532;13.348;2024-02-23T04:20:05;1.92;;;0.70;;
20861;SDS011;10591;52.532;13.348;2024-02-23T04:22:39;2.12;;;0.90;;
20861;SDS011;10591;52.532;13.348;2024-02-23T04:25:09;1.22;;;0.80;;
20861;SDS011;10591;52.532;13.348;2024-02-23T04:27:42;2.47;;;1.07;;
20861;SDS011;10591;52.532;13.348;2024-02-23T04:30:14;2.37;;;0.98;;
20861;SDS011;10591;52.532;13.348;2024-02-23T04:32:47;0.78;;;0.78;;
20861;SDS011;10591;52.532;13.348;2024-02-23T04:35:18;0.70;;;0.70;;
20861;SDS011;10591;52.532;13.348;2024-02-23T04:37:48;0.70;;;0.70;;
20861;SDS011;10591;52.532;13.348;2024-02-23T04:40:21;1.57;;;1.10;;
20861;SDS011;10591;52.532;13.348;2024-02-23T04:42:52;1.50;;;0.70;;
20861;SDS011;10591;52.532;13.348;2024-02-23T04:45:22;1.45;;;0.90;;
20861;SDS011;10591;52.532;13.348;2024-02-23T04:47:53;1.37;;;0.60;;
20861;SDS011;10591;52.532;13.348;2024-02-23T04:50:24;0.80;;;0.60;;
20861;SDS011;10591;52.532;13.348;2024-02-23T04:52:54;1.27;;;1.05;;
20861;SDS011;10591;52.532;13.348;2024-02-23T04:55:25;1.75;;;0.93;;
20861;SDS011;10591;52.532;13.348;2024-02-23T04:57:55;1.32;;;0.80;;
20861;SDS011;10591;52.532;13.348;2024-02-23T05:00:29;1.15;;;0.70;;
20861;SDS011;10591;52.532;13.348;2024-02-23T05:03:01;1.95;;;0.93;;
20861;SDS011;10591;52.532;13.348;2024-02-23T05:05:35;1.20;;;0.70;;
20861;SDS011;10591;52.532;13.348;2024-02-23T05:08:05;1.02;;;0.80;;
20861;SDS011;10591;52.532;13.348;2024-02-23T05:10:36;1.02;;;0.90;;
20861;SDS011;10591;52.532;13.348;2024-02-23T05:13:07;1.90;;;0.75;;
20861;SDS011;10591;52.532;13.348;2024-02-23T05:15:38;0.68;;;0.68;;
20861;SDS011;10591;52.532;13.348;2024-02-23T05:18:08;0.62;;;0.60;;
20861;SDS011;10591;52.532;13.348;2024-02-23T05:20:39;1.32;;;0.70;;
20861;SDS011;10591;52.532;13.348;2024-02-23T05:23:10;0.80;;;0.65;;
20861;SDS011;10591;52.532;13.348;2024-02-23T05:25:41;0.72;;;0.60;;
20861;SDS011;10591;52.532;13.348;2024-02-23T05:28:12;1.20;;;1.10;;
20861;SDS011;10591;52.532;13.348;2024-02-23T05:30:43;0.60;;;0.50;;
20861;SDS011;10591;52.532;13.348;2024-02-23T05:33:13;0.62;;;0.62;;
20861;SDS011;10591;52.532;13.348;2024-02-23T05:35:44;0.82;;;0.68;;
20861;SDS011;10591;52.532;13.348;2024-02-23T05:38:16;0.85;;;0.60;;
20861;SDS011;10591;52.532;13.348;2024-02-23T05:40:47;0.40;;;0.40;;
20861;SDS011;10591;52.532;13.348;2024-02-23T05:43:17;1.27;;;0.60;;
20861;SDS011;10591;52.532;13.348;2024-02-23T05:45:49;0.95;;;0.45;;
20861;SDS011;10591;52.532;13.348;2024-02-23T05:48:19;0.60;;;0.60;;
20861;SDS011;10591;52.532;13.348;2024-02-23T05:50:50;0.50;;;0.50;;
20861;SDS011;10591;52.532;13.348;2024-02-23T05:53:21;0.50;;;0.50;;
20861;SDS011;10591;52.532;13.348;2024-02-23T05:55:53;0.45;;;0.45;;
20861;SDS011;10591;52.532;13.348;2024-02-23T05:58:24;0.60;;;0.60;;
20861;SDS011;10591;52.532;13.348;2024-02-23T06:00:54;0.88;;;0.62;;
20861;SDS011;10591;52.532;13.348;2024-02-23T06:03:25;0.55;;;0.50;;
20861;SDS011;10591;52.532;13.348;2024-02-23T06:05:56;1.98;;;1.10;;
20861;SDS011;10591;52.532;13.348;2024-02-23T06:08:28;1.50;;;0.78;;
20861;SDS011;10591;52.532;13.348;2024-02-23T06:10:59;0.70;;;0.70;;
20861;SDS011;10591;52.532;13.348;2024-02-23T06:13:31;0.85;;;0.70;;
20861;SDS011;10591;52.532;13.348;2024-02-23T06:16:04;0.70;;;0.70;;
20861;SDS011;10591;52.532;13.348;2024-02-23T06:18:35;1.02;;;1.00;;
20861;SDS011;10591;52.532;13.348;2024-02-23T06:21:17;0.85;;;0.80;;
20861;SDS011;10591;52.532;13.348;2024-02-23T06:23:43;1.15;;;0.80;;
20861;SDS011;10591;52.532;13.348;2024-02-23T06:26:16;0.70;;;0.70;;
20861;SDS011;10591;52.532;13.348;2024-02-23T06:28:48;2.08;;;1.15;;
20861;SDS011;10591;52.532;13.348;2024-02-23T06:31:19;0.70;;;0.70;;
20861;SDS011;10591;52.532;13.348;2024-02-23T06:33:50;1.02;;;0.88;;
20861;SDS011;10591;52.532;13.348;2024-02-23T06:36:21;0.75;;;0.70;;
20861;SDS011;10591;52.532;13.348;2024-02-23T06:38:51;1.47;;;0.90;;
20861;SDS011;10591;52.532;13.348;2024-02-23T06:41:22;1.17;;;0.88;;
20861;SDS011;10591;52.532;13.348;2024-02-23T06:43:53;0.90;;;0.90;;
20861;SDS011;10591;52.532;13.348;2024-02-23T06:46:24;1.60;;;0.60;;
20861;SDS011;10591;52.532;13.348;2024-02-23T06:48:56;1.00;;;0.90;;
20861;SDS011;10591;52.532;13.348;2024-02-23T06:51:28;0.80;;;0.80;;
20861;SDS011;10591;52.532;13.348;2024-02-23T06:53:58;1.07;;;0.88;;
20861;SDS011;10591;52.532;13.348;2024-02-23T06:56:30;1.47;;;0.75;;
20861;SDS011;10591;52.532;13.348;2024-02-23T06:59:00;1.10;;;1.00;;
20861;SDS011;10591;52.532;13.348;2024-02-23T07:01:32;1.30;;;0.90;;
20861;SDS011;10591;52.532;13.348;2024-02-23T07:04:06;0.85;;;0.85;;
20861;SDS011;10591;52.532;13.348;2024-02-23T07:06:37;1.15;;;1.00;;
20861;SDS011;10591;52.532;13.348;2024-02-23T07:09:08;0.72;;;0.70;;
20861;SDS011;10591;52.532;13.348;2024-02-23T07:11:40;0.93;;;0.93;;
20861;SDS011;10591;52.532;13.348;2024-02-23T07:14:12;0.88;;;0.88;;
20861;SDS011;10591;52.532;13.348;2024-02-23T07:16:47;1.20;;;0.93;;
20861;SDS011;10591;52.532;13.348;2024-02-23T07:19:18;1.10;;;0.90;;
20861;SDS011;10591;52.532;13.348;2024-02-23T07:21:50;1.70;;;1.00;;
20861;SDS011;10591;52.532;13.348;2024-02-23T07:24:20;0.80;;;0.80;;
20861;SDS011;10591;52.532;13.348;2024-02-23T07:26:51;0.93;;;0.93;;
20861;SDS011;10591;52.532;13.348;2024-02-23T07:29:21;1.25;;;1.15;;
20861;SDS011;10591;52.532;13.348;2024-02-23T07:31:53;1.17;;;0.95;;
20861;SDS011;10591;52.532;13.348;2024-02-23T07:34:24;1.15;;;1.00;;
20861;SDS011;10591;52.532;13.348;2024-02-23T07:36:55;1.32;;;1.22;;
20861;SDS011;10591;52.532;13.348;2024-02-23T07:39:26;1.98;;;1.15;;
20861;SDS011;10591;52.532;13.348;2024-02-23T07:41:57;2.42;;;1.00;;
20861;SDS011;10591;52.532;13.348;2024-02-23T07:44:27;1.10;;;1.00;;
20861;SDS011;10591;52.532;13.348;2024-02-23T07:46:59;1.40;;;1.30;;
20861;SDS011;10591;52.532;13.348;2024-02-23T07:49:31;1.72;;;1.30;;
20861;SDS011;10591;52.532;13.348;2024-02-23T07:52:02;1.25;;;0.90;;
20861;SDS011;10591;52.532;13.348;2024-02-23T07:54:33;1.55;;;1.20;;
20861;SDS011;10591;52.532;13.348;2024-02-23T07:57:04;1.00;;;1.00;;
20861;SDS011;10591;52.532;13.348;2024-02-23T07:59:34;2.05;;;1.22;;
20861;SDS011;10591;52.532;13.348;2024-02-23T08:02:05;1.35;;;1.22;;
20861;SDS011;10591;52.532;13.348;2024-02-23T08:04:36;1.75;;;1.22;;
20861;SDS011;10591;52.532;13.348;2024-02-23T08:07:06;2.33;;;1.10;;
20861;SDS011;10591;52.532;13.348;2024-02-23T08:09:37;1.40;;;1.20;;
20861;SDS011;10591;52.532;13.348;2024-02-23T08:12:08;1.60;;;1.50;;
20861;SDS011;10591;52.532;13.348;2024-02-23T08:14:40;1.30;;;1.20;;
20861;SDS011;10591;52.532;13.348;2024-02-23T08:17:11;1.55;;;1.30;;
20861;SDS011;10591;52.532;13.348;2024-02-23T08:19:42;1.02;;;0.95;;
20861;SDS011;10591;52.532;13.348;2024-02-23T08:22:12;1.07;;;0.90;;
20861;SDS011;10591;52.532;13.348;2024-02-23T08:24:43;1.00;;;0.93;;
20861;SDS011;10591;52.532;13.348;2024-02-23T08:27:16;1.05;;;1.05;;
20861;SDS011;10591;52.532;13.348;2024-02-23T08:29:46;0.90;;;0.90;;
20861;SDS011;10591;52.532;13.348;2024-02-23T08:32:17;1.00;;;0.98;;
20861;SDS011;10591;52.532;13.348;2024-02-23T08:34:48;1.10;;;1.10;;
20861;SDS011;10591;52.532;13.348;2024-02-23T08:37:20;0.82;;;0.80;;
20861;SDS011;10591;52.532;13.348;2024-02-23T08:39:51;1.20;;;1.02;;
20861;SDS011;10591;52.532;13.348;2024-02-23T08:42:22;1.70;;;1.07;;
20861;SDS011;10591;52.532;13.348;2024-02-23T08:44:53;0.75;;;0.75;;
20861;SDS011;10591;52.532;13.348;2024-02-23T08:47:24;1.00;;;0.90;;
20861;SDS011;10591;52.532;13.348;2024-02-23T08:49:57;1.90;;;0.90;;
20861;SDS011;10591;52.532;13.348;2024-02-23T08:52:28;0.75;;;0.75;;
20861;SDS011;10591;52.532;13.348;2024-02-23T08:54:58;1.50;;;0.85;;
20861;SDS011;10591;52.532;13.348;2024-02-23T08:57:32;1.10;;;0.75;;
20861;SDS011;10591;52.532;13.348;2024-02-23T09:00:03;1.47;;;0.88;;
20861;SDS011;10591;52.532;13.348;2024-02-23T09:02:35;0.80;;;0.80;;
20861;SDS011;10591;52.532;13.348;2024-02-23T09:05:07;1.75;;;0.98;;
20861;SDS011;10591;52.532;13.348;2024-02-23T09:07:38;1.47;;;0.80;;
20861;SDS011;10591;52.532;13.348;2024-02-23T09:10:10;1.60;;;0.80;;
20861;SDS011;10591;52.532;13.348;2024-02-23T09:12:45;1.77;;;1.35;;
20861;SDS011;10591;52.532;13.348;2024-02-23T09:15:16;2.35;;;1.10;;
20861;SDS011;10591;52.532;13.348;2024-02-23T09:17:47;1.10;;;1.00;;
20861;SDS011;10591;52.532;13.348;2024-02-23T09:20:17;1.30;;;0.95;;
20861;SDS011;10591;52.532;13.348;2024-02-23T09:22:48;1.05;;;0.80;;
20861;SDS011;10591;52.532;13.348;2024-02-23T09:25:19;1.12;;;0.80;;
20861;SDS011;10591;52.532;13.348;2024-02-23T09:27:50;0.98;;;0.80;;
20861;SDS011;10591;52.532;13.348;2024-02-23T09:30:20;3.37;;;0.85;;
20861;SDS011;10591;52.532;13.348;2024-02-23T09:32:51;1.20;;;0.80;;
20861;SDS011;10591;52.532;13.348;2024-02-23T09:35:23;1.42;;;1.00;;
20861;SDS011;10591;52.532;13.348;2024-02-23T09:37:55;2.10;;;0.88;;
20861;SDS011;10591;52.532;13.348;2024-02-23T09:40:28;1.77;;;1.00;;
20861;SDS011;10591;52.532;13.348;2024-02-23T09:42:59;1.22;;;0.90;;
20861;SDS011;10591;52.532;13.348;2024-02-23T09:45:30;1.87;;;0.93;;
20861;SDS011;10591;52.532;13.348;2024-02-23T09:48:00;0.70;;;0.60;;
20861;SDS011;10591;52.532;13.348;2024-02-23T09:50:33;1.87;;;1.00;;
20861;SDS011;10591;52.532;13.348;2024-02-23T09:53:05;0.93;;;0.80;;
20861;SDS011;10591;52.532;13.348;2024-02-23T09:55:41;1.47;;;0.80;;
20861;SDS011;10591;52.532;13.348;2024-02-23T09:58:13;1.30;;;0.95;;
20861;SDS011;10591;52.532;13.348;2024-02-23T10:00:46;3.62;;;1.40;;
20861;SDS011;10591;52.532;13.348;2024-02-23T10:03:16;1.35;;;0.85;;
20861;SDS011;10591;52.532;13.348;2024-02-23T10:05:48;1.98;;;1.25;;
20861;SDS011;10591;52.532;13.348;2024-02-23T10:08:18;1.00;;;0.70;;
20861;SDS011;10591;52.532;13.348;2024-02-23T10:10:49;1.02;;;0.82;;
20861;SDS011;10591;52.532;13.348;2024-02-23T10:13:23;3.17;;;0.95;;
20861;SDS011;10591;52.532;13.348;2024-02-23T10:15:59;1.82;;;1.00;;
20861;SDS011;10591;52.532;13.348;2024-02-23T10:18:37;1.10;;;0.80;;
20861;SDS011;10591;52.532;13.348;2024-02-23T10:21:27;1.00;;;0.90;;
20861;SDS011;10591;52.532;13.348;2024-02-23T10:23:58;3.00;;;1.07;;
20861;SDS011;10591;52.532;13.348;2024-02-23T10:26:30;1.30;;;0.80;;
20861;SDS011;10591;52.532;13.348;2024-02-23T10:29:04;2.22;;;0.80;;
20861;SDS011;10591;52.532;13.348;2024-02-23T10:31:38;1.40;;;0.90;;
20861;SDS011;10591;52.532;13.348;2024-02-23T10:34:11;1.10;;;1.00;;
20861;SDS011;10591;52.532;13.348;2024-02-23T10:36:45;3.10;;;1.22;;
20861;SDS011;10591;52.532;13.348;2024-02-23T10:39:19;1.82;;;0.95;;
20861;SDS011;10591;52.532;13.348;2024-02-23T10:41:57;1.80;;;0.80;;
20861;SDS011;10591;52.532;13.348;2024-02-23T10:44:32;0.80;;;0.62;;
20861;SDS011;10591;52.532;13.348;2024-02-23T10:47:03;2.45;;;1.00;;
20861;SDS011;10591;52.532;13.348;2024-02-23T10:49:35;2.10;;;1.00;;
20861;SDS011;10591;52.532;13.348;2024-02-23T10:52:09;0.90;;;0.85;;
20861;SDS011;10591;52.532;13.348;2024-02-23T10:54:45;1.77;;;0.85;;
20861;SDS011;10591;52.532;13.348;2024-02-23T10:57:18;1.27;;;0.62;;
20861;SDS011;10591;52.532;13.348;2024-02-23T10:59:50;1.70;;;1.00;;
20861;SDS011;10591;52.532;13.348;2024-02-23T11:02:21;1.67;;;0.75;;
20861;SDS011;10591;52.532;13.348;2024-02-23T11:05:00;1.45;;;1.02;;
20861;SDS011;10591;52.532;13.348;2024-02-23T11:07:34;1.95;;;0.95;;
20861;SDS011;10591;52.532;13.348;2024-02-23T11:10:09;1.57;;;1.10;;
20861;SDS011;10591;52.532;13.348;2024-02-23T11:12:44;1.47;;;0.90;;
20861;SDS011;10591;52.532;13.348;2024-02-23T11:15:31;1.40;;;0.70;;
20861;SDS011;10591;52.532;13.348;2024-02-23T11:18:03;1.15;;;0.93;;
20861;SDS011;10591;52.532;13.348;2024-02-23T11:20:35;1.60;;;0.88;;
20861;SDS011;10591;52.532;13.348;2024-02-23T11:23:17;1.20;;;1.00;;
20861;SDS011;10591;52.532;13.348;2024-02-23T11:26:00;1.20;;;0.90;;
20861;SDS011;10591;52.532;13.348;2024-02-23T11:29:12;2.85;;;1.10;;
20861;SDS011;10591;52.532;13.348;2024-02-23T11:31:24;2.05;;;0.80;;
20861;SDS011;10591;52.532;13.348;2024-02-23T11:33:59;1.42;;;0.90;;
20861;SDS011;10591;52.532;13.348;2024-02-23T11:36:31;2.80;;;1.10;;
20861;SDS011;10591;52.532;13.348;2024-02-23T11:39:05;1.67;;;0.98;;
20861;SDS011;10591;52.532;13.348;2024-02-23T11:41:37;2.77;;;1.45;;
20861;SDS011;10591;52.532;13.348;2024-02-23T11:44:12;1.50;;;1.00;;
20861;SDS011;10591;52.532;13.348;2024-02-23T11:46:43;2.72;;;0.90;;
20861;SDS011;10591;52.532;13.348;2024-02-23T11:49:19;1.60;;;1.10;;
20861;SDS011;10591;52.532;13.348;2024-02-23T11:51:53;3.45;;;1.07;;
20861;SDS011;10591;52.532;13.348;2024-02-23T11:54:27;1.02;;;0.85;;
20861;SDS011;10591;52.532;13.348;2024-02-23T11:57:01;1.40;;;1.02;;
20861;SDS011;10591;52.532;13.348;2024-02-23T11:59:32;2.77;;;1.02;;
20861;SDS011;10591;52.532;13.348;2024-02-23T12:02:04;3.85;;;1.15;;
20861;SDS011;10591;52.532;13.348;2024-02-23T12:04:37;1.60;;;1.07;;
20861;SDS011;10591;52.532;13.348;2024-02-23T12:07:13;1.30;;;0.95;;
20861;SDS011;10591;52.532;13.348;2024-02-23T12:09:45;2.20;;;1.12;;
20861;SDS011;10591;52.532;13.348;2024-02-23T12:12:17;2.10;;;1.00;;
20861;SDS011;10591;52.532;13.348;2024-02-23T12:14:48;1.98;;;0.93;;
20861;SDS011;10591;52.532;13.348;2024-02-23T12:17:19;1.70;;;1.20;;
20861;SDS011;10591;52.532;13.348;2024-02-23T12:19:59;1.70;;;1.10;;
20861;SDS011;10591;52.532;13.348;2024-02-23T12:22:32;2.42;;;1.37;;
20861;SDS011;10591;52.532;13.348;2024-02-23T12:25:04;1.60;;;0.88;;
20861;SDS011;10591;52.532;13.348;2024-02-23T12:27:36;1.35;;;1.00;;
20861;SDS011;10591;52.532;13.348;2024-02-23T12:30:15;2.92;;;1.05;;
20861;SDS011;10591;52.532;13.348;2024-02-23T12:32:47;1.35;;;0.90;;
20861;SDS011;10591;52.532;13.348;2024-02-23T12:35:18;2.42;;;0.90;;
20861;SDS011;10591;52.532;13.348;2024-02-23T12:37:50;1.32;;;1.22;;
20861;SDS011;10591;52.532;13.348;2024-02-23T12:40:28;2.27;;;0.98;;
20861;SDS011;10591;52.532;13.348;2024-02-23T12:42:58;1.15;;;0.75;;
20861;SDS011;10591;52.532;13.348;2024-02-23T12:45:30;1.20;;;1.07;;
20861;SDS011;10591;52.532;13.348;2024-02-23T12:48:02;3.17;;;1.77;;
20861;SDS011;10591;52.532;13.348;2024-02-23T12:50:34;1.52;;;1.05;;
20861;SDS011;10591;52.532;13.348;2024-02-23T12:53:05;2.15;;;1.00;;
20861;SDS011;10591;52.532;13.348;2024-02-23T12:55:38;1.17;;;0.90;;
20861;SDS011;10591;52.532;13.348;2024-02-23T12:58:10;3.30;;;1.02;;
20861;SDS011;10591;52.532;13.348;2024-02-23T13:00:44;3.12;;;1.55;;
20861;SDS011;10591;52.532;13.348;2024-02-23T13:03:17;1.55;;;0.93;;
20861;SDS011;10591;52.532;13.348;2024-02-23T13:05:53;1.40;;;1.10;;
20861;SDS011;10591;52.532;13.348;2024-02-23T13:08:26;1.02;;;0.80;;
20861;SDS011;10591;52.532;13.348;2024-02-23T13:11:00;1.67;;;0.88;;
20861;SDS011;10591;52.532;13.348;2024-02-23T13:13:35;2.02;;;1.20;;
20861;SDS011;10591;52.532;13.348;2024-02-23T13:16:10;2.90;;;1.35;;
20861;SDS011;10591;52.532;13.348;2024-02-23T13:18:42;1.95;;;1.17;;
20861;SDS011;10591;52.532;13.348;2024-02-23T13:21:15;2.65;;;1.10;;
20861;SDS011;10591;52.532;13.348;2024-02-23T13:23:46;2.17;;;1.30;;
20861;SDS011;10591;52.532;13.348;2024-02-23T13:26:18;2.62;;;1.00;;
20861;SDS011;10591;52.532;13.348;2024-02-23T13:28:50;2.75;;;1.30;;
20861;SDS011;10591;52.532;13.348;2024-02-23T13:31:21;1.77;;;1.20;;
20861;SDS011;10591;52.532;13.348;2024-02-23T13:33:56;2.22;;;1.10;;
20861;SDS011;10591;52.532;13.348;2024-02-23T13:36:27;2.90;;;1.50;;
20861;SDS011;10591;52.532;13.348;2024-02-23T13:38:57;1.45;;;1.35;;
20861;SDS011;10591;52.532;13.348;2024-02-23T13:41:29;2.90;;;1.55;;
20861;SDS011;10591;52.532;13.348;2024-02-23T13:44:00;2.33;;;1.20;;
20861;SDS011;10591;52.532;13.348;2024-02-23T13:46:31;2.33;;;1.27;;
20861;SDS011;10591;52.532;13.348;2024-02-23T13:49:04;2.27;;;1.02;;
20861;SDS011;10591;52.532;13.348;2024-02-23T13:51:36;1.55;;;1.15;;
20861;SDS011;10591;52.532;13.348;2024-02-23T13:54:08;2.67;;;1.10;;
20861;SDS011;10591;52.532;13.348;2024-02-23T13:56:38;2.02;;;1.10;;
20861;SDS011;10591;52.532;13.348;2024-02-23T13:59:09;2.58;;;1.27;;
20861;SDS011;10591;52.532;13.348;2024-02-23T14:01:39;3.35;;;1.20;;
20861;SDS011;10591;52.532;13.348;2024-02-23T14:04:10;1.75;;;1.20;;
20861;SDS011;10591;52.532;13.348;2024-02-23T14:06:41;3.70;;;1.22;;
20861;SDS011;10591;52.532;13.348;2024-02-23T14:09:12;2.70;;;1.02;;
20861;SDS011;10591;52.532;13.348;2024-02-23T14:11:42;2.25;;;1.35;;
20861;SDS011;10591;52.532;13.348;2024-02-23T14:14:15;1.92;;;1.20;;
20861;SDS011;10591;52.532;13.348;2024-02-23T14:16:48;2.77;;;1.70;;
20861;SDS011;10591;52.532;13.348;2024-02-23T14:19:18;3.52;;;1.45;;
20861;SDS011;10591;52.532;13.348;2024-02-23T14:21:49;1.72;;;1.20;;
20861;SDS011;10591;52.532;13.348;2024-02-23T14:24:20;3.40;;;1.70;;
20861;SDS011;10591;52.532;13.348;2024-02-23T14:26:51;2.55;;;1.10;;
20861;SDS011;10591;52.532;13.348;2024-02-23T14:29:21;2.33;;;1.20;;
20861;SDS011;10591;52.532;13.348;2024-02-23T14:31:52;4.05;;;1.20;;
20861;SDS011;10591;52.532;13.348;2024-02-23T14:34:23;1.75;;;1.20;;
20861;SDS011;10591;52.532;13.348;2024-02-23T14:36:54;2.35;;;1.00;;
20861;SDS011;10591;52.532;13.348;2024-02-23T14:39:25;2.87;;;1.20;;
20861;SDS011;10591;52.532;13.348;2024-02-23T14:41:56;2.83;;;1.17;;
20861;SDS011;10591;52.532;13.348;2024-02-23T14:44:26;1.65;;;1.00;;
20861;SDS011;10591;52.532;13.348;2024-02-23T14:46:57;2.00;;;1.50;;
20861;SDS011;10591;52.532;13.348;2024-02-23T14:49:27;2.72;;;1.40;;
20861;SDS011;10591;52.532;13.348;2024-02-23T14:51:58;1.85;;;1.10;;
20861;SDS011;10591;52.532;13.348;2024-02-23T14:54:29;1.62;;;1.02;;
20861;SDS011;10591;52.532;13.348;2024-02-23T14:57:01;2.20;;;1.05;;
20861;SDS011;10591;52.532;13.348;2024-02-23T14:59:32;2.25;;;1.10;;